createdAt,value
2023-03-05T00:00:10.361Z,6.85
2023-03-05T00:02:37.582Z,5.28
2023-03-05T00:05:04.851Z,5.95
2023-03-05T00:07:32.384Z,8.38
2023-03-05T00:10:00.715Z,8.30
2023-03-05T00:12:28.346Z,11.80
2023-03-05T00:14:55.615Z,7.72
2023-03-05T00:17:22.906Z,12.85
2023-03-05T00:19:50.167Z,8.80
2023-03-05T00:22:17.603Z,10.88
2023-03-05T00:24:44.803Z,7.82
2023-03-05T00:27:12.057Z,7.13
2023-03-05T00:29:39.815Z,4.70
2023-03-05T00:32:06.999Z,11.52
2023-03-05T00:34:34.162Z,9.05
2023-03-05T00:37:01.723Z,6.60
2023-03-05T00:39:29.111Z,9.73
2023-03-05T00:41:56.302Z,8.75
2023-03-05T00:44:24.154Z,11.98
2023-03-05T00:46:51.526Z,9.88
2023-03-05T00:49:18.845Z,9.15
2023-03-05T00:51:46.062Z,11.32
2023-03-05T00:54:13.197Z,9.60
2023-03-05T00:56:40.371Z,10.77
2023-03-05T00:59:07.559Z,7.82
2023-03-05T01:01:34.818Z,11.18
2023-03-05T01:04:02.057Z,7.60
2023-03-05T01:06:29.601Z,6.85
2023-03-05T01:08:56.975Z,5.68
2023-03-05T01:11:24.177Z,5.88
2023-03-05T01:13:51.413Z,8.70
2023-03-05T01:16:18.808Z,6.65
2023-03-05T01:18:45.960Z,12.85
2023-03-05T01:21:13.107Z,6.05
2023-03-05T01:23:40.305Z,6.65
2023-03-05T01:26:08.614Z,2.10
2023-03-05T01:28:35.927Z,3.97
2023-03-05T01:31:03.568Z,5.05
2023-03-05T01:33:30.767Z,8.18
2023-03-05T01:35:58.036Z,4.90
2023-03-05T01:38:25.187Z,4.60
2023-03-05T01:40:52.371Z,6.78
2023-03-05T01:43:24.269Z,5.05
2023-03-05T01:46:10.451Z,5.07
2023-03-05T01:48:37.851Z,6.00
2023-03-05T01:51:05.419Z,3.17
2023-03-05T01:53:32.668Z,1.45
2023-03-05T01:55:59.876Z,2.38
2023-03-05T01:58:27.089Z,2.90
2023-03-05T02:00:55.143Z,3.95
2023-03-05T02:03:23.597Z,4.72
2023-03-05T02:05:51.137Z,5.70
2023-03-05T02:08:20.923Z,5.03
2023-03-05T02:10:49.842Z,6.20
2023-03-05T02:13:22.651Z,3.45
2023-03-05T02:15:50.252Z,3.03
2023-03-05T02:18:18.346Z,5.90
2023-03-05T02:20:45.506Z,4.75
2023-03-05T02:23:12.725Z,6.95
2023-03-05T02:25:40.177Z,5.68
2023-03-05T02:28:10.178Z,3.28
2023-03-05T02:30:38.623Z,4.53
2023-03-05T02:33:06.349Z,5.20
2023-03-05T02:35:33.818Z,6.05
2023-03-05T02:38:01.071Z,3.30
2023-03-05T02:40:28.312Z,7.22
2023-03-05T02:42:55.572Z,3.03
2023-03-05T02:45:23.097Z,10.95
2023-03-05T02:47:50.234Z,5.10
2023-03-05T02:50:17.474Z,4.20
2023-03-05T02:52:45.150Z,15.27
2023-03-05T02:55:12.323Z,5.97
2023-03-05T02:57:39.520Z,7.07
2023-03-05T03:00:07.197Z,9.05
2023-03-05T03:02:34.462Z,3.42
2023-03-05T03:05:01.632Z,5.80
2023-03-05T03:07:28.856Z,7.47
2023-03-05T03:09:56.039Z,1.88
2023-03-05T03:12:23.209Z,5.65
2023-03-05T03:14:50.368Z,4.22
2023-03-05T03:17:18.475Z,7.28
2023-03-05T03:19:46.126Z,3.58
2023-03-05T03:22:14.512Z,3.63
2023-03-05T03:24:42.523Z,6.07
2023-03-05T03:27:09.978Z,5.70
2023-03-05T03:29:37.287Z,8.73
2023-03-05T03:32:04.861Z,5.10
2023-03-05T03:34:32.046Z,4.00
2023-03-05T03:36:59.191Z,8.25
2023-03-05T03:39:26.490Z,2.50
2023-03-05T03:41:54.362Z,9.38
2023-03-05T03:44:21.990Z,4.20
2023-03-05T03:46:50.578Z,3.65
2023-03-05T03:49:19.437Z,2.53
2023-03-05T03:51:47.000Z,2.70
2023-03-05T03:54:14.982Z,5.88
2023-03-05T03:56:42.440Z,4.22
2023-03-05T03:59:09.795Z,2.70
2023-03-05T04:01:37.128Z,3.28
2023-03-05T04:04:04.876Z,3.20
2023-03-05T04:06:32.371Z,3.53
2023-03-05T04:08:59.763Z,3.00
2023-03-05T04:11:27.040Z,4.55
2023-03-05T04:13:54.173Z,2.20
2023-03-05T04:16:21.465Z,2.78
2023-03-05T04:18:48.821Z,1.80
2023-03-05T04:21:16.120Z,5.40
2023-03-05T04:23:43.236Z,5.65
2023-03-05T04:26:10.401Z,2.45
2023-03-05T04:28:37.612Z,3.28
2023-03-05T04:31:04.875Z,1.42
2023-03-05T04:33:32.114Z,1.23
2023-03-05T04:35:59.328Z,2.10
2023-03-05T04:38:26.478Z,1.10
2023-03-05T04:40:53.626Z,0.75
2023-03-05T04:43:20.830Z,1.58
2023-03-05T04:45:48.040Z,2.22
2023-03-05T04:48:15.456Z,1.63
2023-03-05T04:50:42.594Z,2.45
2023-03-05T04:53:09.706Z,2.08
2023-03-05T04:55:36.984Z,3.38
2023-03-05T04:58:04.213Z,1.80
2023-03-05T05:00:31.473Z,0.90
2023-03-05T05:02:58.804Z,3.00
2023-03-05T05:05:27.465Z,6.40
2023-03-05T05:07:56.313Z,0.77
2023-03-05T05:10:24.006Z,1.20
2023-03-05T05:12:51.655Z,1.23
2023-03-05T05:15:18.915Z,3.60
2023-03-05T05:17:46.227Z,0.82
2023-03-05T05:20:15.338Z,8.77
2023-03-05T05:22:42.996Z,1.90
2023-03-05T05:25:10.698Z,12.20
2023-03-05T05:27:38.887Z,11.73
2023-03-05T05:30:06.573Z,2.65
2023-03-05T05:32:33.909Z,2.83
2023-03-05T05:35:01.194Z,1.65
2023-03-05T05:37:28.485Z,4.68
2023-03-05T05:39:55.732Z,3.17
2023-03-05T05:42:24.626Z,2.67
2023-03-05T05:44:52.064Z,1.17
2023-03-05T05:47:19.363Z,2.38
2023-03-05T05:49:46.705Z,2.35
2023-03-05T05:52:14.348Z,1.55
2023-03-05T05:54:41.592Z,1.73
2023-03-05T05:57:08.747Z,2.20
2023-03-05T05:59:37.113Z,1.67
2023-03-05T06:02:04.412Z,2.40
2023-03-05T06:04:31.606Z,4.03
2023-03-05T06:06:59.991Z,3.42
2023-03-05T06:09:27.308Z,3.25
2023-03-05T06:11:54.461Z,1.27
2023-03-05T06:14:21.656Z,1.40
2023-03-05T06:16:48.843Z,1.30
2023-03-05T06:19:16.659Z,1.75
2023-03-05T06:21:43.913Z,1.55
2023-03-05T06:24:11.512Z,2.42
2023-03-05T06:26:38.795Z,22.05
2023-03-05T06:29:06.032Z,6.88
2023-03-05T06:31:35.062Z,2.38
2023-03-05T06:34:03.356Z,2.33
2023-03-05T06:36:31.045Z,21.60
2023-03-05T06:38:58.541Z,7.40
2023-03-05T06:41:27.729Z,15.77
2023-03-05T06:43:55.486Z,15.20
2023-03-05T06:46:24.396Z,23.52
2023-03-05T06:48:52.181Z,5.57
2023-03-05T06:51:24.841Z,7.13
2023-03-05T06:53:52.962Z,6.80
2023-03-05T06:56:20.665Z,9.20
2023-03-05T06:58:48.491Z,7.47
2023-03-05T07:01:16.162Z,4.53
2023-03-05T07:03:43.965Z,2.25
2023-03-05T07:06:16.159Z,3.33
2023-03-05T07:08:45.179Z,2.17
2023-03-05T07:11:13.941Z,2.85
2023-03-05T07:13:41.169Z,1.52
2023-03-05T07:16:10.045Z,2.35
2023-03-05T07:18:37.368Z,4.68
2023-03-05T07:21:08.679Z,1.80
2023-03-05T07:23:36.905Z,2.25
2023-03-05T07:26:04.844Z,3.00
2023-03-05T07:28:32.134Z,2.42
2023-03-05T07:31:00.153Z,2.30
2023-03-05T07:33:27.858Z,1.25
2023-03-05T07:35:55.345Z,1.67
2023-03-05T07:38:22.534Z,0.55
2023-03-05T07:40:50.486Z,2.25
2023-03-05T07:43:17.959Z,2.60
2023-03-05T07:45:45.514Z,1.38
2023-03-05T07:48:13.999Z,1.70
2023-03-05T07:50:41.606Z,1.40
2023-03-05T07:53:09.172Z,1.27
2023-03-05T07:55:36.570Z,0.70
2023-03-05T07:58:03.715Z,2.40
2023-03-05T08:00:30.919Z,1.90
2023-03-05T08:02:58.242Z,0.70
2023-03-05T08:05:25.450Z,2.17
2023-03-05T08:07:52.695Z,4.05
2023-03-05T08:10:19.938Z,2.58
2023-03-05T08:12:47.213Z,2.28
2023-03-05T08:15:14.402Z,1.35
2023-03-05T08:17:41.637Z,1.00
2023-03-05T08:20:10.987Z,1.02
2023-03-05T08:22:38.524Z,0.90
2023-03-05T08:25:06.654Z,1.52
2023-03-05T08:27:33.888Z,1.27
2023-03-05T08:30:02.961Z,1.45
2023-03-05T08:32:30.208Z,1.33
2023-03-05T08:34:58.617Z,0.73
2023-03-05T08:37:26.058Z,1.70
2023-03-05T08:39:53.529Z,2.83
2023-03-05T08:42:20.656Z,2.47
2023-03-05T08:44:47.869Z,1.33
2023-03-05T08:47:15.049Z,1.92
2023-03-05T08:49:42.262Z,3.40
2023-03-05T08:52:09.498Z,2.20
2023-03-05T08:54:37.359Z,2.38
2023-03-05T08:57:05.413Z,1.98
2023-03-05T08:59:32.549Z,2.17
2023-03-05T09:02:03.212Z,4.43
2023-03-05T09:04:30.502Z,6.00
2023-03-05T09:06:58.272Z,1.05
2023-03-05T09:09:25.702Z,2.20
2023-03-05T09:11:53.080Z,2.15
2023-03-05T09:14:20.922Z,1.42
2023-03-05T09:16:48.156Z,6.75
2023-03-05T09:19:15.394Z,23.20
2023-03-05T09:21:42.893Z,1.23
2023-03-05T09:24:10.146Z,1.67
2023-03-05T09:26:37.423Z,7.00
2023-03-05T09:29:04.691Z,2.05
2023-03-05T09:31:31.874Z,4.90
2023-03-05T09:33:59.055Z,4.05
2023-03-05T09:36:27.652Z,3.40
2023-03-05T09:38:55.191Z,1.75
2023-03-05T09:41:30.356Z,1.95
2023-03-05T09:44:00.583Z,2.10
2023-03-05T09:46:41.953Z,0.50
2023-03-05T09:49:17.627Z,2.70
2023-03-05T09:51:46.801Z,1.13
2023-03-05T09:54:19.926Z,1.42
2023-03-05T09:56:49.694Z,2.38
2023-03-05T09:59:37.132Z,1.02
2023-03-05T10:02:06.434Z,0.60
2023-03-05T10:04:33.692Z,1.60
2023-03-05T10:07:08.761Z,1.65
2023-03-05T10:09:44.441Z,1.27
2023-03-05T10:12:15.677Z,2.33
2023-03-05T10:14:43.115Z,0.95
2023-03-05T10:17:29.387Z,2.63
2023-03-05T10:20:08.175Z,1.42
2023-03-05T10:22:42.439Z,1.85
2023-03-05T10:25:12.737Z,4.18
2023-03-05T10:27:43.758Z,1.17
2023-03-05T10:30:26.129Z,1.17
2023-03-05T10:32:56.273Z,1.98
2023-03-05T10:35:52.869Z,1.88
2023-03-05T10:38:38.864Z,4.72
2023-03-05T10:41:18.070Z,3.63
2023-03-05T10:43:59.696Z,6.28
2023-03-05T10:46:30.094Z,1.50
2023-03-05T10:48:59.446Z,2.28
2023-03-05T10:51:26.563Z,1.13
2023-03-05T10:53:53.726Z,1.02
2023-03-05T10:56:22.745Z,1.83
2023-03-05T10:58:51.996Z,2.15
2023-03-05T11:01:21.993Z,0.20
2023-03-05T11:04:10.718Z,1.80
2023-03-05T11:06:42.245Z,1.15
2023-03-05T11:09:12.923Z,0.55
2023-03-05T11:11:40.092Z,1.27
2023-03-05T11:14:23.722Z,3.47
2023-03-05T11:16:50.998Z,2.28
2023-03-05T11:19:37.730Z,4.57
2023-03-05T11:22:07.900Z,6.78
2023-03-05T11:24:35.090Z,2.08
2023-03-05T11:27:02.210Z,2.65
2023-03-05T11:29:34.769Z,2.08
2023-03-05T11:32:20.704Z,0.57
2023-03-05T11:34:48.197Z,2.63
2023-03-05T11:37:24.008Z,2.42
2023-03-05T11:40:05.682Z,1.98
2023-03-05T11:42:32.875Z,3.08
2023-03-05T11:45:00.844Z,10.30
2023-03-05T11:47:31.101Z,3.45
2023-03-05T11:50:03.036Z,2.15
2023-03-05T11:52:33.405Z,1.00
2023-03-05T11:55:06.827Z,0.65
2023-03-05T11:57:39.162Z,2.45
2023-03-05T12:00:12.413Z,2.97
2023-03-05T12:02:39.648Z,2.03
2023-03-05T12:05:07.980Z,2.15
2023-03-05T12:07:40.843Z,1.90
2023-03-05T12:10:15.170Z,2.67
2023-03-05T12:12:48.655Z,3.97
2023-03-05T12:15:26.480Z,3.25
2023-03-05T12:17:56.488Z,0.85
2023-03-05T12:20:28.421Z,1.38
2023-03-05T12:22:56.882Z,0.30
2023-03-05T12:25:46.864Z,0.63
2023-03-05T12:28:15.690Z,1.23
2023-03-05T12:30:43.589Z,0.50
2023-03-05T12:33:30.840Z,1.00
2023-03-05T12:36:16.883Z,1.67
2023-03-05T12:38:45.120Z,0.52
2023-03-05T12:41:25.821Z,0.68
2023-03-05T12:44:06.095Z,2.83
2023-03-05T12:46:35.765Z,4.43
2023-03-05T12:49:22.887Z,0.80
2023-03-05T12:51:51.053Z,0.32
2023-03-05T12:54:39.679Z,2.47
2023-03-05T12:57:14.176Z,4.15
2023-03-05T12:59:44.224Z,2.13
2023-03-05T13:02:19.863Z,3.10
2023-03-05T13:04:47.250Z,2.97
2023-03-05T13:07:16.216Z,6.18
2023-03-05T13:09:52.737Z,0.40
2023-03-05T13:12:19.985Z,2.42
2023-03-05T13:14:47.844Z,0.75
2023-03-05T13:17:30.128Z,1.90
2023-03-05T13:19:58.101Z,1.50
2023-03-05T13:22:25.572Z,1.75
2023-03-05T13:25:11.405Z,1.42
2023-03-05T13:27:38.608Z,0.40
2023-03-05T13:30:06.040Z,0.32
2023-03-05T13:32:33.872Z,1.38
2023-03-05T13:35:01.871Z,0.38
2023-03-05T13:37:32.046Z,2.88
2023-03-05T13:39:59.321Z,2.05
2023-03-05T13:42:28.506Z,1.08
2023-03-05T13:44:55.905Z,2.40
2023-03-05T13:47:23.754Z,0.50
2023-03-05T13:49:59.938Z,0.38
2023-03-05T13:52:29.750Z,0.65
2023-03-05T13:54:57.509Z,0.63
2023-03-05T13:57:34.301Z,3.95
2023-03-05T14:00:01.615Z,0.98
2023-03-05T14:02:31.819Z,1.15
2023-03-05T14:05:00.436Z,0.93
2023-03-05T14:07:37.023Z,5.97
2023-03-05T14:10:05.663Z,1.13
2023-03-05T14:12:43.586Z,5.63
2023-03-05T14:15:22.124Z,1.00
2023-03-05T14:17:49.555Z,3.25
2023-03-05T14:20:30.344Z,1.25
2023-03-05T14:22:58.941Z,0.77
2023-03-05T14:25:42.428Z,0.77
2023-03-05T14:28:18.697Z,1.38
2023-03-05T14:30:47.565Z,1.25
2023-03-05T14:33:15.393Z,1.02
2023-03-05T14:35:49.535Z,1.67
2023-03-05T14:38:20.985Z,0.47
2023-03-05T14:40:48.156Z,0.60
2023-03-05T14:43:15.296Z,0.65
2023-03-05T14:45:47.914Z,1.70
2023-03-05T14:48:16.359Z,2.20
2023-03-05T14:50:53.205Z,2.90
2023-03-05T14:53:23.620Z,0.80
2023-03-05T14:55:53.729Z,0.73
2023-03-05T14:58:21.999Z,1.02
2023-03-05T15:00:51.218Z,0.90
2023-03-05T15:03:18.832Z,0.73
2023-03-05T15:05:48.096Z,1.15
2023-03-05T15:08:16.161Z,2.05
2023-03-05T15:10:43.610Z,2.20
2023-03-05T15:13:10.778Z,2.45
2023-03-05T15:15:39.144Z,1.55
2023-03-05T15:18:06.334Z,2.55
2023-03-05T15:20:33.819Z,1.25
2023-03-05T15:23:01.040Z,2.17
2023-03-05T15:25:29.462Z,0.90
2023-03-05T15:27:56.610Z,3.08
2023-03-05T15:30:25.978Z,1.55
2023-03-05T15:32:54.201Z,2.25
2023-03-05T15:35:21.866Z,3.28
2023-03-05T15:37:49.115Z,1.80
2023-03-05T15:40:16.518Z,2.78
2023-03-05T15:42:43.849Z,1.85
2023-03-05T15:45:11.222Z,1.08
2023-03-05T15:47:38.372Z,1.00
2023-03-05T15:50:06.090Z,2.03
2023-03-05T15:52:33.359Z,2.55
2023-03-05T15:55:01.087Z,1.08
2023-03-05T15:57:29.115Z,3.88
2023-03-05T15:59:56.514Z,1.50
2023-03-05T16:02:25.095Z,1.30
2023-03-05T16:04:52.468Z,2.38
2023-03-05T16:07:20.318Z,6.03
2023-03-05T16:09:52.196Z,2.17
2023-03-05T16:12:21.405Z,3.88
2023-03-05T16:14:50.937Z,3.00
2023-03-05T16:17:20.529Z,7.72
2023-03-05T16:19:49.110Z,3.45
2023-03-05T16:22:16.262Z,3.30
2023-03-05T16:24:43.479Z,4.68
2023-03-05T16:27:10.896Z,4.40
2023-03-05T16:29:38.191Z,6.68
2023-03-05T16:32:05.791Z,5.35
2023-03-05T16:34:34.493Z,6.13
2023-03-05T16:37:04.425Z,4.68
2023-03-05T16:39:31.683Z,2.83
2023-03-05T16:41:59.033Z,2.47
2023-03-05T16:44:26.282Z,3.03
2023-03-05T16:46:53.934Z,1.70
2023-03-05T16:49:21.716Z,1.75
2023-03-05T16:51:49.091Z,1.67
2023-03-05T16:54:16.364Z,1.63
2023-03-05T16:56:43.598Z,2.47
2023-03-05T16:59:11.748Z,2.55
2023-03-05T17:01:38.959Z,1.70
2023-03-05T17:04:06.386Z,1.80
2023-03-05T17:06:34.814Z,2.10
2023-03-05T17:09:02.924Z,1.90
2023-03-05T17:11:30.339Z,6.05
2023-03-05T17:13:57.784Z,1.92
2023-03-05T17:16:25.689Z,3.72
2023-03-05T17:18:52.964Z,1.83
2023-03-05T17:21:22.243Z,10.02
2023-03-05T17:23:49.510Z,2.75
2023-03-05T17:26:18.473Z,2.92
2023-03-05T17:28:46.773Z,2.60
2023-03-05T17:31:14.514Z,2.15
2023-03-05T17:33:42.062Z,2.55
2023-03-05T17:36:16.682Z,2.72
2023-03-05T17:38:44.333Z,4.05
2023-03-05T17:41:12.048Z,4.85
2023-03-05T17:43:39.186Z,5.97
2023-03-05T17:46:06.795Z,8.18
2023-03-05T17:48:34.194Z,6.47
2023-03-05T17:51:02.429Z,5.93
2023-03-05T17:53:29.771Z,9.57
2023-03-05T17:55:57.163Z,10.60
2023-03-05T17:58:25.009Z,11.38
2023-03-05T18:00:52.435Z,13.27
2023-03-05T18:03:19.773Z,17.35
2023-03-05T18:05:47.160Z,3.17
2023-03-05T18:08:14.475Z,7.13
2023-03-05T18:10:41.728Z,6.63
2023-03-05T18:13:09.333Z,9.57
2023-03-05T18:15:38.510Z,11.40
2023-03-05T18:18:07.494Z,10.50
2023-03-05T18:20:36.366Z,8.63
2023-03-05T18:23:05.347Z,7.10
2023-03-05T18:25:32.797Z,3.88
2023-03-05T18:28:26.751Z,4.32
2023-03-05T18:33:22.688Z,4.40
2023-03-05T18:35:52.412Z,3.35
2023-03-05T18:38:20.715Z,5.38
2023-03-05T18:40:51.142Z,4.05
2023-03-05T18:43:20.618Z,3.35
2023-03-05T18:45:49.004Z,5.22
2023-03-05T18:48:16.193Z,4.60
2023-03-05T18:50:43.798Z,9.90
2023-03-05T18:53:13.105Z,7.55
2023-03-05T18:55:42.814Z,5.72
2023-03-05T18:58:10.628Z,5.68
2023-03-05T19:00:37.894Z,5.40
2023-03-05T19:03:05.898Z,5.53
2023-03-05T19:05:33.295Z,7.53
2023-03-05T19:08:00.943Z,4.55
2023-03-05T19:10:28.670Z,8.35
2023-03-05T19:13:15.401Z,5.10
2023-03-05T19:15:42.979Z,21.35
2023-03-05T19:18:10.262Z,4.93
2023-03-05T19:20:37.429Z,7.95
2023-03-05T19:23:04.785Z,5.13
2023-03-05T19:25:31.944Z,3.53
2023-03-05T19:27:59.138Z,3.13
2023-03-05T19:30:26.499Z,4.95
2023-03-05T19:32:53.700Z,3.88
2023-03-05T19:35:21.011Z,4.10
2023-03-05T19:37:48.227Z,4.28
2023-03-05T19:40:15.588Z,5.43
2023-03-05T19:42:42.823Z,9.82
2023-03-05T19:45:10.185Z,14.60
2023-03-05T19:47:37.772Z,7.35
2023-03-05T19:50:05.483Z,9.13
2023-03-05T19:52:32.828Z,9.00
2023-03-05T19:55:00.470Z,6.47
2023-03-05T19:57:27.610Z,9.65
2023-03-05T19:59:54.828Z,8.32
2023-03-05T20:02:22.104Z,6.75
2023-03-05T20:04:49.760Z,7.03
2023-03-05T20:07:16.971Z,5.80
2023-03-05T20:09:44.233Z,5.72
2023-03-05T20:12:11.494Z,7.30
2023-03-05T20:14:38.670Z,6.57
2023-03-05T20:17:05.895Z,5.28
2023-03-05T20:19:33.069Z,6.85
2023-03-05T20:22:00.280Z,4.55
2023-03-05T20:24:27.449Z,4.30
2023-03-05T20:26:54.678Z,8.00
2023-03-05T20:29:21.931Z,7.88
2023-03-05T20:31:50.088Z,4.03
2023-03-05T20:34:18.502Z,5.22
2023-03-05T20:36:46.619Z,4.90
2023-03-05T20:39:14.205Z,5.35
2023-03-05T20:41:41.619Z,7.38
2023-03-05T20:44:11.606Z,13.00
2023-03-05T20:46:41.870Z,12.35
2023-03-05T20:49:10.370Z,11.48
2023-03-05T20:51:38.389Z,12.98
2023-03-05T20:54:07.696Z,7.82
2023-03-05T20:56:35.372Z,13.05
2023-03-05T20:59:04.669Z,9.07
2023-03-05T21:01:33.077Z,10.25
2023-03-05T21:04:01.040Z,9.32
2023-03-05T21:06:28.366Z,10.73
2023-03-05T21:08:55.838Z,9.38
2023-03-05T21:11:23.019Z,10.38
2023-03-05T21:13:50.273Z,8.32
2023-03-05T21:16:23.870Z,8.40
2023-03-05T21:18:51.935Z,6.00
2023-03-05T21:21:19.791Z,6.05
2023-03-05T21:23:47.246Z,6.82
2023-03-05T21:26:14.586Z,5.80
2023-03-05T21:28:41.880Z,5.90
2023-03-05T21:31:10.829Z,6.25
2023-03-05T21:33:38.074Z,4.40
2023-03-05T21:36:05.681Z,7.18
2023-03-05T21:38:34.100Z,4.40
2023-03-05T21:41:01.893Z,4.35
2023-03-05T21:43:29.208Z,10.00
2023-03-05T21:45:57.273Z,5.43
2023-03-05T21:48:25.333Z,5.97
2023-03-05T21:50:52.995Z,7.78
2023-03-05T21:53:20.476Z,5.35
2023-03-05T21:56:03.425Z,5.53
2023-03-05T21:58:31.950Z,9.18
2023-03-05T22:00:59.656Z,7.82
2023-03-05T22:03:27.448Z,6.22
2023-03-05T22:05:54.931Z,8.50
2023-03-05T22:08:22.955Z,9.15
2023-03-05T22:10:50.199Z,6.82
2023-03-05T22:13:19.945Z,8.43
2023-03-05T22:15:49.976Z,7.10
2023-03-05T22:18:19.013Z,7.55
2023-03-05T22:20:46.582Z,8.35
2023-03-05T22:23:14.144Z,7.18
2023-03-05T22:25:41.802Z,8.23
2023-03-05T22:28:11.398Z,8.95
2023-03-05T22:30:43.685Z,7.72
2023-03-05T22:33:11.181Z,11.90
2023-03-05T22:35:39.636Z,13.18
2023-03-05T22:38:07.134Z,9.50
2023-03-05T22:40:34.339Z,11.57
2023-03-05T22:43:01.571Z,11.85
2023-03-05T22:45:29.154Z,11.68
2023-03-05T22:47:56.400Z,14.07
2023-03-05T22:50:24.331Z,7.63
2023-03-05T22:52:51.635Z,11.13
2023-03-05T22:55:19.026Z,8.10
2023-03-05T22:57:46.274Z,7.93
2023-03-05T23:00:15.401Z,8.77
2023-03-05T23:02:42.827Z,10.30
2023-03-05T23:05:10.781Z,7.05
2023-03-05T23:07:38.920Z,8.18
2023-03-05T23:10:09.343Z,7.95
2023-03-05T23:12:38.018Z,9.30
2023-03-05T23:15:09.536Z,8.90
2023-03-05T23:17:36.676Z,9.60
2023-03-05T23:20:05.544Z,9.40
2023-03-05T23:22:32.783Z,8.27
2023-03-05T23:24:59.905Z,9.85
2023-03-05T23:27:27.099Z,9.52
2023-03-05T23:30:12.250Z,7.70
2023-03-05T23:32:39.397Z,8.95
2023-03-05T23:35:06.607Z,8.45
2023-03-05T23:37:33.756Z,10.48
2023-03-05T23:40:00.889Z,9.45
2023-03-05T23:42:28.110Z,9.02
2023-03-05T23:44:55.522Z,9.43
2023-03-05T23:47:22.673Z,10.40
2023-03-05T23:49:49.902Z,10.85
2023-03-05T23:52:17.175Z,8.88
2023-03-05T23:54:44.408Z,8.35
2023-03-05T23:57:11.693Z,8.80
2023-03-05T23:59:38.933Z,9.55
